Time;durP1;ratioP1;P1;durP2;ratioP2;P2;SDS_P1;SDS_P2;PMS_P1;PMS_P2;Temp;Humidity;BMP_temperature;BMP_pressure;BME280_temperature;BME280_humidity;BME280_pressure;Samples;Min_cycle;Max_cycle;Signal;HPM_P1;HPM_P2
2022/12/08 00:02:17;;;;;;;12.10;3.25;;;;;;;;;;5015267;28;20026;-27
2022/12/08 00:10:20;;;;;;;11.75;3.33;;;;;;;;;;4991712;28;20046;-30
2022/12/08 00:12:46;;;;;;;10.48;3.47;;;;;;;;;;5014686;28;20026;-27
2022/12/08 00:15:12;;;;;;;13.40;3.65;;;;;;;;;;5015031;28;20052;-25
2022/12/08 00:17:39;;;;;;;17.38;4.18;;;;;;;;;;5014632;28;20092;-24
2022/12/08 00:20:05;;;;;;;14.57;4.72;;;;;;;;;;5014696;28;20030;-27
2022/12/08 00:22:31;;;;;;;15.82;3.80;;;;;;;;;;5014565;28;20033;-25
2022/12/08 00:24:57;;;;;;;8.68;3.35;;;;;;;;;;5014370;28;20117;-29
2022/12/08 00:27:24;;;;;;;18.17;4.20;;;;;;;;;;5014273;28;20113;-27
2022/12/08 00:29:50;;;;;;;7.32;3.30;;;;;;;;;;5014607;28;20026;-27
2022/12/08 00:32:16;;;;;;;10.15;3.40;;;;;;;;;;5014259;28;20054;-32
2022/12/08 00:34:42;;;;;;;12.30;4.25;;;;;;;;;;5014302;28;20022;-28
2022/12/08 00:37:08;;;;;;;13.80;4.75;;;;;;;;;;5015717;28;20025;-25
2022/12/08 00:39:34;;;;;;;15.98;3.53;;;;;;;;;;5017803;28;20057;-24
2022/12/08 00:42:13;;;;;;;8.32;3.70;;;;;;;;;;5017765;28;20033;-24
2022/12/08 00:44:42;;;;;;;12.25;3.78;;;;;;;;;;5017810;28;20467;-25
2022/12/08 00:47:08;;;;;;;5.88;3.88;;;;;;;;;;5018016;28;20084;-31
2022/12/08 00:49:34;;;;;;;7.22;3.10;;;;;;;;;;5018458;28;20062;-25
2022/12/08 00:52:01;;;;;;;13.50;4.38;;;;;;;;;;5017565;28;20472;-26
2022/12/08 00:54:27;;;;;;;6.95;3.30;;;;;;;;;;5017606;28;20026;-28
2022/12/08 00:56:53;;;;;;;9.00;3.03;;;;;;;;;;5017857;28;20367;-24
2022/12/08 00:59:19;;;;;;;14.82;3.40;;;;;;;;;;5017693;28;20444;-25
2022/12/08 01:01:46;;;;;;;12.95;3.25;;;;;;;;;;5017777;28;20111;-28
2022/12/08 01:04:16;;;;;;;15.18;3.83;;;;;;;;;;5017184;28;20128;-25
2022/12/08 01:06:43;;;;;;;12.55;3.40;;;;;;;;;;5017745;28;20029;-25
2022/12/08 01:09:09;;;;;;;6.57;3.08;;;;;;;;;;5000125;28;20116;-26
2022/12/08 01:11:36;;;;;;;17.80;3.67;;;;;;;;;;5017348;28;20030;-27
2022/12/08 01:14:02;;;;;;;14.85;4.55;;;;;;;;;;5017205;28;20040;-28
2022/12/08 01:16:29;;;;;;;10.15;3.17;;;;;;;;;;4999991;28;20080;-26
2022/12/08 01:18:59;;;;;;;13.52;3.10;;;;;;;;;;5017101;28;20160;-29
2022/12/08 01:21:25;;;;;;;11.95;3.38;;;;;;;;;;5017049;28;20480;-25
2022/12/08 01:23:51;;;;;;;9.45;3.97;;;;;;;;;;5017117;28;20026;-25
2022/12/08 01:26:18;;;;;;;5.85;3.20;;;;;;;;;;5017039;28;20037;-29
2022/12/08 01:28:45;;;;;;;14.90;3.97;;;;;;;;;;5017221;28;20112;-25
2022/12/08 01:31:13;;;;;;;14.77;4.03;;;;;;;;;;5016947;28;20152;-25
2022/12/08 01:33:40;;;;;;;8.57;3.45;;;;;;;;;;5017081;28;20068;-24
2022/12/08 01:36:06;;;;;;;9.15;2.78;;;;;;;;;;5017138;28;20030;-27
2022/12/08 01:38:32;;;;;;;10.93;4.13;;;;;;;;;;5016679;28;20512;-24
2022/12/08 01:40:59;;;;;;;8.90;3.40;;;;;;;;;;5016665;28;20034;-26
2022/12/08 01:43:25;;;;;;;15.05;4.25;;;;;;;;;;5016663;28;20029;-26
2022/12/08 01:45:51;;;;;;;9.30;3.55;;;;;;;;;;5016696;28;20101;-25
2022/12/08 01:48:20;;;;;;;8.75;3.63;;;;;;;;;;5016091;28;20037;-25
2022/12/08 01:50:47;;;;;;;10.70;3.40;;;;;;;;;;5016835;28;20029;-27
2022/12/08 01:53:19;;;;;;;13.07;3.20;;;;;;;;;;5016688;28;20025;-25
2022/12/08 01:56:12;;;;;;;10.82;4.63;;;;;;;;;;5016473;28;20034;-25
2022/12/08 01:58:41;;;;;;;16.02;3.85;;;;;;;;;;5013633;28;20418;-26
2022/12/08 02:01:08;;;;;;;4.82;2.85;;;;;;;;;;4999879;28;20038;-27
2022/12/08 02:03:39;;;;;;;6.35;2.97;;;;;;;;;;5016236;28;20054;-24
2022/12/08 02:06:05;;;;;;;8.70;3.42;;;;;;;;;;5016593;28;20026;-25
2022/12/08 02:08:32;;;;;;;7.38;3.45;;;;;;;;;;5016251;28;20025;-29
2022/12/08 02:10:58;;;;;;;6.50;2.88;;;;;;;;;;5016205;28;20061;-24
2022/12/08 02:13:25;;;;;;;7.15;3.50;;;;;;;;;;4998859;28;20062;-24
2022/12/08 02:15:59;;;;;;;11.30;3.05;;;;;;;;;;5016409;28;20022;-25
2022/12/08 02:18:25;;;;;;;5.70;2.97;;;;;;;;;;5016284;28;20044;-24
2022/12/08 02:21:07;;;;;;;8.10;3.10;;;;;;;;;;4998752;28;20045;-24
2022/12/08 02:23:36;;;;;;;8.20;3.65;;;;;;;;;;5016639;28;20038;-25
2022/12/08 02:26:13;;;;;;;12.07;3.47;;;;;;;;;;5015871;28;20022;-27
2022/12/08 02:28:58;;;;;;;9.98;3.95;;;;;;;;;;5016233;28;20088;-26
2022/12/08 02:31:36;;;;;;;11.30;3.80;;;;;;;;;;5015880;28;20037;-25
2022/12/08 02:34:15;;;;;;;8.07;3.53;;;;;;;;;;5015965;28;20343;-28
2022/12/08 02:36:44;;;;;;;7.00;3.20;;;;;;;;;;5015716;28;20033;-27
2022/12/08 02:39:20;;;;;;;9.15;3.22;;;;;;;;;;5015575;28;20022;-28
2022/12/08 02:41:50;;;;;;;8.35;3.00;;;;;;;;;;5015665;28;20021;-25
2022/12/08 02:44:38;;;;;;;6.60;2.97;;;;;;;;;;5015895;28;20022;-23
2022/12/08 02:47:13;;;;;;;5.63;3.30;;;;;;;;;;5015477;28;20034;-24
2022/12/08 02:49:39;;;;;;;11.77;3.85;;;;;;;;;;5015782;28;20034;-26
2022/12/08 02:52:28;;;;;;;11.25;3.80;;;;;;;;;;5015295;28;20041;-27
2022/12/08 02:55:01;;;;;;;9.02;3.20;;;;;;;;;;5007745;28;20038;-26
2022/12/08 02:57:39;;;;;;;11.68;3.45;;;;;;;;;;5015557;28;20037;-26
2022/12/08 03:00:10;;;;;;;9.50;3.00;;;;;;;;;;5014639;28;20034;-26
2022/12/08 03:02:55;;;;;;;9.90;3.33;;;;;;;;;;5015111;28;20045;-24
2022/12/08 03:05:39;;;;;;;5.93;3.05;;;;;;;;;;5015551;28;20033;-26
2022/12/08 03:08:14;;;;;;;11.40;3.70;;;;;;;;;;5015504;28;20388;-25
2022/12/08 03:10:42;;;;;;;5.57;2.70;;;;;;;;;;5015508;28;20030;-25
2022/12/08 03:13:12;;;;;;;7.18;2.97;;;;;;;;;;5015111;28;20583;-24
2022/12/08 03:15:39;;;;;;;8.70;3.55;;;;;;;;;;5015077;28;20069;-24
2022/12/08 03:18:08;;;;;;;10.93;2.67;;;;;;;;;;5015274;28;20357;-32
2022/12/08 03:20:34;;;;;;;8.10;3.67;;;;;;;;;;5015111;28;20100;-25
2022/12/08 03:23:02;;;;;;;10.15;3.80;;;;;;;;;;5014937;28;20112;-27
2022/12/08 03:25:31;;;;;;;11.15;3.60;;;;;;;;;;5015219;28;20034;-26
2022/12/08 03:27:57;;;;;;;6.50;2.83;;;;;;;;;;5014972;28;20032;-24
2022/12/08 03:30:23;;;;;;;11.13;3.83;;;;;;;;;;5014907;28;20029;-25
2022/12/08 03:33:03;;;;;;;6.57;2.97;;;;;;;;;;5014813;28;20026;-24
2022/12/08 03:35:30;;;;;;;9.48;3.67;;;;;;;;;;5015139;28;20029;-25
2022/12/08 03:38:10;;;;;;;13.20;3.90;;;;;;;;;;5015000;28;20065;-24
2022/12/08 03:40:36;;;;;;;6.45;2.63;;;;;;;;;;5015068;28;20417;-28
2022/12/08 03:43:03;;;;;;;11.40;3.30;;;;;;;;;;5014714;28;20018;-25
2022/12/08 03:45:29;;;;;;;12.45;3.75;;;;;;;;;;5015000;28;20033;-24
2022/12/08 03:47:55;;;;;;;11.38;3.50;;;;;;;;;;5014750;28;20109;-23
2022/12/08 03:50:21;;;;;;;7.43;3.53;;;;;;;;;;4997416;28;20022;-30
2022/12/08 03:52:47;;;;;;;15.70;3.55;;;;;;;;;;5014546;28;20038;-28
2022/12/08 03:55:14;;;;;;;9.60;3.47;;;;;;;;;;5014711;28;20026;-26
2022/12/08 03:57:40;;;;;;;6.75;2.78;;;;;;;;;;5014616;28;20034;-24
2022/12/08 04:00:07;;;;;;;7.28;3.05;;;;;;;;;;5014925;28;20365;-28
2022/12/08 04:02:33;;;;;;;12.65;3.05;;;;;;;;;;5014399;28;20104;-25
2022/12/08 04:05:00;;;;;;;7.45;3.22;;;;;;;;;;5014542;28;20048;-28
2022/12/08 04:07:26;;;;;;;9.35;3.88;;;;;;;;;;5014561;28;20037;-24
2022/12/08 04:09:52;;;;;;;8.13;3.10;;;;;;;;;;4997243;28;20477;-30
2022/12/08 04:12:18;;;;;;;5.28;2.72;;;;;;;;;;5015986;28;20544;-26
2022/12/08 04:14:44;;;;;;;6.97;3.33;;;;;;;;;;5018720;28;20088;-25
2022/12/08 04:17:10;;;;;;;9.15;3.90;;;;;;;;;;5018325;28;20103;-25
2022/12/08 04:19:36;;;;;;;6.45;2.90;;;;;;;;;;5018466;28;20026;-25
2022/12/08 04:22:03;;;;;;;7.75;4.30;;;;;;;;;;5000922;28;20492;-24
2022/12/08 04:24:29;;;;;;;6.20;3.58;;;;;;;;;;5018467;28;20041;-26
2022/12/08 04:26:55;;;;;;;8.93;4.50;;;;;;;;;;5018207;28;20045;-25
2022/12/08 04:29:21;;;;;;;5.50;2.80;;;;;;;;;;5018111;28;20108;-26
2022/12/08 04:31:47;;;;;;;12.15;3.33;;;;;;;;;;5018326;28;20068;-24
2022/12/08 04:34:13;;;;;;;4.95;2.50;;;;;;;;;;5018061;28;20045;-24
2022/12/08 04:36:39;;;;;;;9.98;2.90;;;;;;;;;;5017920;28;20030;-25
2022/12/08 04:39:06;;;;;;;9.48;3.15;;;;;;;;;;5018152;28;20403;-25
2022/12/08 04:41:32;;;;;;;8.55;2.97;;;;;;;;;;5017905;28;20495;-24
2022/12/08 04:43:58;;;;;;;7.95;2.97;;;;;;;;;;5017823;28;20362;-24
2022/12/08 04:46:24;;;;;;;8.57;3.90;;;;;;;;;;5017839;28;20428;-23
2022/12/08 04:48:50;;;;;;;7.20;3.20;;;;;;;;;;5017671;28;20029;-24
2022/12/08 04:51:18;;;;;;;5.07;2.80;;;;;;;;;;5000350;28;20030;-26
2022/12/08 04:53:44;;;;;;;6.97;3.25;;;;;;;;;;5017572;28;20061;-26
2022/12/08 04:56:12;;;;;;;5.07;3.47;;;;;;;;;;5017615;28;20030;-26
2022/12/08 04:58:38;;;;;;;4.47;2.78;;;;;;;;;;5017736;28;20041;-28
2022/12/08 05:01:04;;;;;;;8.00;3.50;;;;;;;;;;5017411;28;20029;-26
2022/12/08 05:03:31;;;;;;;5.22;2.50;;;;;;;;;;5017264;28;20050;-25
2022/12/08 05:05:59;;;;;;;9.45;2.70;;;;;;;;;;5017330;28;20026;-27
2022/12/08 05:08:25;;;;;;;8.45;3.13;;;;;;;;;;5017288;28;20054;-25
2022/12/08 05:10:52;;;;;;;6.10;3.15;;;;;;;;;;5000006;28;20026;-23
2022/12/08 05:13:18;;;;;;;5.60;3.33;;;;;;;;;;5017269;28;20419;-25
2022/12/08 05:15:44;;;;;;;7.70;3.85;;;;;;;;;;5017333;28;20033;-25
2022/12/08 05:18:10;;;;;;;8.15;3.55;;;;;;;;;;5016983;28;20030;-24
2022/12/08 05:20:36;;;;;;;5.97;3.38;;;;;;;;;;5016788;28;20022;-27
2022/12/08 05:23:03;;;;;;;7.45;2.92;;;;;;;;;;5015945;28;20049;-32
2022/12/08 05:25:29;;;;;;;6.95;3.55;;;;;;;;;;5017066;28;20026;-28
2022/12/08 05:27:55;;;;;;;9.20;3.55;;;;;;;;;;5016583;28;20033;-27
2022/12/08 05:30:21;;;;;;;5.40;2.97;;;;;;;;;;5016561;28;20144;-26
2022/12/08 05:32:47;;;;;;;7.57;3.90;;;;;;;;;;5016451;28;20088;-27
2022/12/08 05:35:13;;;;;;;7.70;3.47;;;;;;;;;;5016354;28;20113;-30
2022/12/08 05:37:39;;;;;;;7.72;3.47;;;;;;;;;;4999198;28;20469;-24
2022/12/08 05:40:06;;;;;;;6.10;2.70;;;;;;;;;;5016751;28;20022;-28
2022/12/08 05:42:32;;;;;;;6.90;2.50;;;;;;;;;;5016479;28;20026;-26
2022/12/08 05:44:58;;;;;;;7.45;3.38;;;;;;;;;;5016692;28;20105;-25
2022/12/08 05:47:24;;;;;;;12.50;4.10;;;;;;;;;;5016324;28;20025;-25
2022/12/08 05:49:51;;;;;;;6.13;2.83;;;;;;;;;;5016602;28;20101;-32
2022/12/08 05:52:17;;;;;;;4.40;3.95;;;;;;;;;;5016509;28;20026;-26
2022/12/08 05:54:43;;;;;;;7.25;3.08;;;;;;;;;;5016564;28;20072;-27
2022/12/08 05:57:09;;;;;;;6.03;2.92;;;;;;;;;;5016549;28;20037;-26
2022/12/08 05:59:36;;;;;;;7.32;3.10;;;;;;;;;;5016389;28;20029;-24
2022/12/08 06:04:34;;;;;;;7.80;2.80;;;;;;;;;;4956641;29;20203;-29
2022/12/08 06:07:00;;;;;;;9.18;4.57;;;;;;;;;;4957833;29;20023;-29
2022/12/08 06:09:26;;;;;;;6.70;3.33;;;;;;;;;;4958060;29;20102;-29
2022/12/08 06:11:52;;;;;;;9.65;3.30;;;;;;;;;;4958473;28;20042;-29
2022/12/08 06:14:18;;;;;;;5.63;3.08;;;;;;;;;;4957674;29;20051;-29
2022/12/08 06:16:45;;;;;;;5.13;3.13;;;;;;;;;;4957949;29;20031;-30
2022/12/08 06:19:11;;;;;;;6.07;3.28;;;;;;;;;;4957770;29;20023;-30
2022/12/08 06:21:37;;;;;;;7.90;3.50;;;;;;;;;;4957737;29;20054;-30
2022/12/08 06:24:03;;;;;;;10.68;3.17;;;;;;;;;;4957357;29;20023;-30
2022/12/08 06:26:29;;;;;;;8.48;2.92;;;;;;;;;;4957289;29;20027;-29
2022/12/08 06:28:55;;;;;;;9.98;4.45;;;;;;;;;;4957380;29;20031;-29
2022/12/08 06:31:23;;;;;;;10.25;2.65;;;;;;;;;;4957576;29;20027;-29
2022/12/08 06:33:50;;;;;;;5.00;2.92;;;;;;;;;;4957181;28;20031;-29
2022/12/08 06:36:17;;;;;;;7.85;3.00;;;;;;;;;;4957072;28;20364;-29
2022/12/08 06:38:43;;;;;;;6.13;3.83;;;;;;;;;;4957093;29;20293;-29
2022/12/08 06:41:09;;;;;;;4.18;3.20;;;;;;;;;;4957171;29;20023;-29
2022/12/08 06:43:36;;;;;;;7.88;2.80;;;;;;;;;;4957065;28;20055;-29
2022/12/08 06:46:04;;;;;;;10.57;3.13;;;;;;;;;;4957360;29;20031;-29
2022/12/08 06:48:31;;;;;;;5.82;3.35;;;;;;;;;;4956996;29;20031;-29
2022/12/08 06:50:57;;;;;;;9.82;4.50;;;;;;;;;;4957004;29;20027;-29
2022/12/08 06:53:23;;;;;;;6.80;3.40;;;;;;;;;;4957085;28;20399;-29
2022/12/08 06:55:53;;;;;;;12.98;3.35;;;;;;;;;;4956864;29;20115;-29
2022/12/08 06:58:20;;;;;;;10.70;4.15;;;;;;;;;;4956714;29;20110;-29
2022/12/08 07:00:46;;;;;;;7.93;3.28;;;;;;;;;;4956840;29;20034;-29
2022/12/08 07:03:13;;;;;;;8.18;3.00;;;;;;;;;;4956660;28;20118;-30
2022/12/08 07:05:40;;;;;;;5.28;3.00;;;;;;;;;;4957008;29;20031;-30
2022/12/08 07:08:06;;;;;;;4.40;2.65;;;;;;;;;;4956725;29;20043;-30
2022/12/08 07:10:33;;;;;;;7.43;3.97;;;;;;;;;;4956908;29;20039;-29
2022/12/08 07:12:59;;;;;;;4.07;3.03;;;;;;;;;;4956536;28;20055;-29
2022/12/08 07:15:25;;;;;;;10.55;3.60;;;;;;;;;;4956506;29;20361;-29
2022/12/08 07:17:51;;;;;;;11.95;2.88;;;;;;;;;;4956269;29;20031;-30
2022/12/08 07:20:18;;;;;;;7.38;3.42;;;;;;;;;;4956386;29;20434;-30
2022/12/08 07:22:50;;;;;;;9.30;3.15;;;;;;;;;;4956290;28;20027;-29
2022/12/08 07:25:17;;;;;;;7.95;3.58;;;;;;;;;;4956734;29;20035;-29
2022/12/08 07:27:43;;;;;;;18.30;3.78;;;;;;;;;;4956388;29;20027;-30
2022/12/08 07:30:09;;;;;;;8.43;3.15;;;;;;;;;;4956236;29;20019;-29
2022/12/08 07:32:37;;;;;;;6.47;3.03;;;;;;;;;;4956811;28;20348;-29
2022/12/08 07:35:03;;;;;;;9.80;3.25;;;;;;;;;;4956513;29;20414;-29
2022/12/08 07:37:29;;;;;;;6.35;3.03;;;;;;;;;;4956089;29;20028;-30
2022/12/08 07:39:55;;;;;;;5.30;2.95;;;;;;;;;;4955990;29;20046;-28
2022/12/08 07:42:21;;;;;;;10.32;3.50;;;;;;;;;;4956018;28;20409;-30
2022/12/08 07:44:48;;;;;;;8.40;3.05;;;;;;;;;;4955774;29;20019;-29
2022/12/08 07:47:14;;;;;;;10.70;3.00;;;;;;;;;;4959186;28;20027;-30
2022/12/08 07:49:40;;;;;;;5.70;3.08;;;;;;;;;;4962397;28;20114;-29
2022/12/08 07:52:06;;;;;;;4.93;3.08;;;;;;;;;;4962601;28;20406;-30
2022/12/08 07:54:32;;;;;;;5.53;3.50;;;;;;;;;;4962630;28;20031;-30
2022/12/08 07:56:59;;;;;;;5.05;2.65;;;;;;;;;;4962580;28;20063;-29
2022/12/08 07:59:26;;;;;;;9.05;2.95;;;;;;;;;;4962042;28;20027;-30
2022/12/08 08:01:52;;;;;;;9.75;3.33;;;;;;;;;;4961176;28;20368;-30
2022/12/08 08:04:18;;;;;;;6.10;3.85;;;;;;;;;;4961819;29;20124;-30
2022/12/08 08:06:44;;;;;;;7.68;2.75;;;;;;;;;;4962342;28;20028;-29
2022/12/08 08:09:10;;;;;;;7.72;2.83;;;;;;;;;;4961173;29;20062;-29
2022/12/08 08:11:37;;;;;;;12.52;3.53;;;;;;;;;;4962203;29;20042;-30
2022/12/08 08:14:03;;;;;;;8.57;2.97;;;;;;;;;;4962158;29;20366;-29
2022/12/08 08:16:29;;;;;;;8.43;3.17;;;;;;;;;;4962564;29;20124;-29
2022/12/08 08:18:55;;;;;;;10.75;3.35;;;;;;;;;;4962494;29;20046;-29
2022/12/08 08:21:21;;;;;;;10.50;3.25;;;;;;;;;;4962259;29;20024;-29
2022/12/08 08:23:48;;;;;;;9.55;3.03;;;;;;;;;;4961191;28;20042;-29
2022/12/08 08:26:14;;;;;;;8.25;3.30;;;;;;;;;;4962421;28;20043;-30
2022/12/08 08:28:42;;;;;;;10.25;3.78;;;;;;;;;;4962469;29;20035;-29
2022/12/08 08:31:08;;;;;;;9.63;3.60;;;;;;;;;;4961094;28;20031;-29
2022/12/08 08:33:35;;;;;;;5.95;3.35;;;;;;;;;;4961998;28;20066;-29
2022/12/08 08:36:01;;;;;;;8.25;3.00;;;;;;;;;;4961845;29;20375;-32
2022/12/08 08:38:28;;;;;;;5.82;2.70;;;;;;;;;;4961955;29;20184;-29
2022/12/08 08:40:54;;;;;;;10.18;3.58;;;;;;;;;;4960833;29;20099;-29
2022/12/08 08:43:29;;;;;;;5.63;2.90;;;;;;;;;;4962407;28;20094;-30
2022/12/08 08:45:57;;;;;;;5.07;2.58;;;;;;;;;;4961624;29;20039;-30
2022/12/08 08:48:23;;;;;;;10.98;4.55;;;;;;;;;;4961426;29;20118;-30
2022/12/08 08:50:49;;;;;;;6.72;4.10;;;;;;;;;;4961722;29;20074;-30
2022/12/08 08:53:15;;;;;;;11.13;3.38;;;;;;;;;;4961827;28;20362;-29
2022/12/08 08:55:41;;;;;;;9.93;3.25;;;;;;;;;;4960720;28;20031;-29
2022/12/08 08:58:07;;;;;;;8.02;3.22;;;;;;;;;;4960631;28;20027;-30
2022/12/08 09:00:34;;;;;;;10.80;3.10;;;;;;;;;;4959016;29;20027;-30
2022/12/08 09:03:00;;;;;;;10.35;3.20;;;;;;;;;;4958318;28;20050;-29
2022/12/08 09:05:26;;;;;;;10.57;3.13;;;;;;;;;;4958779;29;20378;-29
2022/12/08 09:07:52;;;;;;;7.53;3.58;;;;;;;;;;4958625;29;20082;-29
2022/12/08 09:10:18;;;;;;;6.68;3.25;;;;;;;;;;4958455;29;20362;-29
2022/12/08 09:12:45;;;;;;;9.75;3.92;;;;;;;;;;4958292;28;20047;-29
2022/12/08 09:15:11;;;;;;;6.60;3.53;;;;;;;;;;4958374;29;20078;-30
2022/12/08 09:17:37;;;;;;;8.40;3.17;;;;;;;;;;4958382;29;20034;-30
2022/12/08 09:20:04;;;;;;;9.10;3.63;;;;;;;;;;4959040;29;20069;-30
2022/12/08 09:22:30;;;;;;;9.60;3.13;;;;;;;;;;4957169;28;20583;-29
2022/12/08 09:24:56;;;;;;;9.60;3.00;;;;;;;;;;4958004;29;20028;-29
2022/12/08 09:27:22;;;;;;;8.02;3.50;;;;;;;;;;4957631;29;20027;-29
2022/12/08 09:29:49;;;;;;;7.68;3.00;;;;;;;;;;4957635;29;20036;-28
2022/12/08 09:32:15;;;;;;;7.25;2.58;;;;;;;;;;4957451;28;20065;-29
2022/12/08 09:34:41;;;;;;;8.38;3.78;;;;;;;;;;4957761;29;20051;-28
2022/12/08 09:37:07;;;;;;;10.50;3.13;;;;;;;;;;4958023;29;20450;-28
2022/12/08 09:39:34;;;;;;;7.47;3.72;;;;;;;;;;4957759;29;20027;-28
2022/12/08 09:42:05;;;;;;;13.98;3.55;;;;;;;;;;4957963;28;20074;-28
2022/12/08 09:44:34;;;;;;;6.85;3.60;;;;;;;;;;4957740;29;20023;-28
2022/12/08 09:47:03;;;;;;;11.73;3.38;;;;;;;;;;4957751;29;20055;-28
2022/12/08 09:49:36;;;;;;;6.10;3.38;;;;;;;;;;4957706;29;20108;-29
2022/12/08 09:52:03;;;;;;;7.10;3.00;;;;;;;;;;4957671;28;20034;-29
2022/12/08 09:54:33;;;;;;;11.20;4.68;;;;;;;;;;4957590;29;20031;-29
2022/12/08 09:57:00;;;;;;;7.80;3.17;;;;;;;;;;4957411;29;20031;-28
2022/12/08 09:59:29;;;;;;;9.25;3.47;;;;;;;;;;4957097;29;20054;-29
2022/12/08 10:01:55;;;;;;;6.53;3.42;;;;;;;;;;4957093;28;20059;-29
2022/12/08 10:04:31;;;;;;;9.07;2.88;;;;;;;;;;4957032;29;20047;-29
2022/12/08 10:06:58;;;;;;;9.40;3.65;;;;;;;;;;4956208;29;20102;-29
2022/12/08 10:09:43;;;;;;;4.63;2.63;;;;;;;;;;4956380;28;20466;-29
2022/12/08 10:12:28;;;;;;;11.93;3.08;;;;;;;;;;4957765;28;20071;-28
2022/12/08 10:15:12;;;;;;;10.60;3.53;;;;;;;;;;4957113;29;20043;-28
2022/12/08 10:17:44;;;;;;;6.28;3.05;;;;;;;;;;4957443;29;20073;-28
2022/12/08 10:20:12;;;;;;;6.13;3.22;;;;;;;;;;4957171;29;20035;-28
2022/12/08 10:22:39;;;;;;;7.55;3.03;;;;;;;;;;4957018;28;20032;-28
2022/12/08 10:25:08;;;;;;;7.03;2.70;;;;;;;;;;4956934;29;20086;-29
2022/12/08 10:27:35;;;;;;;5.75;2.97;;;;;;;;;;4957027;29;20328;-28
2022/12/08 10:30:01;;;;;;;10.00;3.47;;;;;;;;;;4956947;29;20054;-29
2022/12/08 10:32:33;;;;;;;8.57;3.45;;;;;;;;;;4956895;28;20381;-27
2022/12/08 10:35:05;;;;;;;10.30;2.90;;;;;;;;;;4956954;29;20470;-28
2022/12/08 10:37:31;;;;;;;6.40;3.08;;;;;;;;;;4956912;29;20102;-28
2022/12/08 10:40:00;;;;;;;6.47;2.80;;;;;;;;;;4956755;29;20043;-28
2022/12/08 10:42:38;;;;;;;10.30;3.67;;;;;;;;;;4957012;28;20051;-29
2022/12/08 10:45:23;;;;;;;8.07;3.42;;;;;;;;;;4957180;29;20023;-29
2022/12/08 10:48:09;;;;;;;8.70;3.33;;;;;;;;;;4956979;29;20027;-29
2022/12/08 10:50:53;;;;;;;7.13;2.75;;;;;;;;;;4947078;29;20426;-29
2022/12/08 10:53:24;;;;;;;4.80;2.63;;;;;;;;;;4955777;28;20041;-29
2022/12/08 10:56:05;;;;;;;5.60;3.00;;;;;;;;;;4955596;29;20370;-29
2022/12/08 10:58:41;;;;;;;10.95;3.58;;;;;;;;;;4955808;29;20031;-29
2022/12/08 11:01:19;;;;;;;6.65;3.80;;;;;;;;;;4957008;29;20062;-29
2022/12/08 11:03:49;;;;;;;7.97;3.17;;;;;;;;;;4956165;28;20063;-29
2022/12/08 11:06:20;;;;;;;6.55;3.00;;;;;;;;;;4956357;29;20054;-29
2022/12/08 11:08:48;;;;;;;5.22;2.47;;;;;;;;;;4955439;29;20545;-29
2022/12/08 11:11:14;;;;;;;6.05;2.75;;;;;;;;;;4956366;29;20047;-29
2022/12/08 11:13:41;;;;;;;9.57;3.53;;;;;;;;;;4956345;28;20035;-29
2022/12/08 11:16:08;;;;;;;6.70;2.90;;;;;;;;;;4956628;29;20032;-29
2022/12/08 11:18:42;;;;;;;8.25;3.20;;;;;;;;;;4956159;29;20027;-29
2022/12/08 11:21:14;;;;;;;10.30;3.20;;;;;;;;;;4955982;28;20098;-29
2022/12/08 11:23:41;;;;;;;12.90;2.83;;;;;;;;;;4956067;28;20121;-28
2022/12/08 11:26:15;;;;;;;8.68;3.33;;;;;;;;;;4956216;29;20020;-28
2022/12/08 11:28:41;;;;;;;6.07;3.30;;;;;;;;;;4956127;29;20039;-29
2022/12/08 11:31:28;;;;;;;4.82;2.38;;;;;;;;;;4956549;29;20032;-29
2022/12/08 11:33:55;;;;;;;6.47;3.13;;;;;;;;;;4955862;28;20046;-29
2022/12/08 11:36:23;;;;;;;5.50;2.97;;;;;;;;;;4956215;29;20105;-29
2022/12/08 11:38:51;;;;;;;9.32;2.55;;;;;;;;;;4956228;29;20027;-30
2022/12/08 11:41:19;;;;;;;6.97;2.75;;;;;;;;;;4956073;29;20489;-29
2022/12/08 11:43:45;;;;;;;5.95;2.90;;;;;;;;;;4956103;28;20035;-29
2022/12/08 11:46:19;;;;;;;6.53;3.05;;;;;;;;;;4955027;29;20028;-30
2022/12/08 11:48:48;;;;;;;7.75;3.08;;;;;;;;;;4956137;29;20036;-29
2022/12/08 11:51:40;;;;;;;4.50;2.55;;;;;;;;;;4955886;29;20129;-29
2022/12/08 11:54:25;;;;;;;5.68;2.72;;;;;;;;;;4933840;29;20117;-28
2022/12/08 11:56:54;;;;;;;8.07;2.63;;;;;;;;;;4955785;29;20174;-29
2022/12/08 11:59:31;;;;;;;8.43;2.88;;;;;;;;;;4955509;29;20037;-29
2022/12/08 12:01:59;;;;;;;9.25;3.00;;;;;;;;;;4955844;28;20113;-30
2022/12/08 12:04:25;;;;;;;5.15;3.13;;;;;;;;;;4956027;29;20115;-29
2022/12/08 12:07:05;;;;;;;9.25;3.10;;;;;;;;;;4955569;29;20031;-29
2022/12/08 12:09:47;;;;;;;6.80;3.35;;;;;;;;;;4955910;29;20062;-28
2022/12/08 12:12:39;;;;;;;8.50;2.75;;;;;;;;;;4955727;28;20328;-29
2022/12/08 12:15:14;;;;;;;4.47;1.98;;;;;;;;;;4956033;29;20054;-29
2022/12/08 12:17:50;;;;;;;11.23;3.13;;;;;;;;;;4955939;29;20350;-29
2022/12/08 12:20:25;;;;;;;9.15;3.00;;;;;;;;;;4955963;29;20371;-30
2022/12/08 12:23:04;;;;;;;10.48;2.60;;;;;;;;;;4955767;28;20362;-29
2022/12/08 12:25:31;;;;;;;10.70;3.15;;;;;;;;;;4955481;29;20035;-29
2022/12/08 12:28:01;;;;;;;6.25;3.13;;;;;;;;;;4955566;29;20038;-29
2022/12/08 12:30:28;;;;;;;9.48;3.20;;;;;;;;;;4955320;29;20035;-29
2022/12/08 12:32:56;;;;;;;8.68;3.28;;;;;;;;;;4955007;28;20121;-29
2022/12/08 12:35:25;;;;;;;9.90;3.38;;;;;;;;;;4958450;29;20031;-29
2022/12/08 12:37:55;;;;;;;6.90;2.70;;;;;;;;;;4958492;29;20034;-29
2022/12/08 12:40:23;;;;;;;8.68;2.65;;;;;;;;;;4958473;29;20078;-29
2022/12/08 12:42:52;;;;;;;14.25;3.13;;;;;;;;;;4958451;28;20451;-29
2022/12/08 12:45:19;;;;;;;6.43;2.25;;;;;;;;;;4958587;29;20059;-30
2022/12/08 12:47:49;;;;;;;11.05;3.92;;;;;;;;;;4958790;29;20051;-29
2022/12/08 12:50:35;;;;;;;8.43;3.20;;;;;;;;;;4959018;29;20019;-29
2022/12/08 12:53:05;;;;;;;5.35;2.58;;;;;;;;;;4958769;28;20101;-31
2022/12/08 12:55:50;;;;;;;9.15;4.70;;;;;;;;;;4958623;29;20031;-30
2022/12/08 12:58:28;;;;;;;9.52;3.45;;;;;;;;;;4957547;29;20378;-30
2022/12/08 13:01:10;;;;;;;10.38;2.95;;;;;;;;;;4958719;29;20023;-30
2022/12/08 13:03:38;;;;;;;5.88;2.97;;;;;;;;;;4958292;28;20047;-30
2022/12/08 13:06:05;;;;;;;11.98;2.88;;;;;;;;;;4957512;29;20023;-29
2022/12/08 13:08:31;;;;;;;9.05;3.92;;;;;;;;;;4958559;29;20368;-30
2022/12/08 13:11:00;;;;;;;15.65;3.08;;;;;;;;;;4958678;29;20023;-29
2022/12/08 13:13:27;;;;;;;5.97;3.42;;;;;;;;;;4957472;28;20054;-30
2022/12/08 13:16:03;;;;;;;8.10;2.80;;;;;;;;;;4958472;29;20035;-30
2022/12/08 13:18:36;;;;;;;10.65;4.10;;;;;;;;;;4958192;29;20039;-29
2022/12/08 13:21:11;;;;;;;6.35;2.65;;;;;;;;;;4958367;29;20123;-29
2022/12/08 13:23:37;;;;;;;8.23;3.70;;;;;;;;;;4958290;28;20019;-30
2022/12/08 13:26:15;;;;;;;5.30;3.67;;;;;;;;;;4957270;29;20034;-30
2022/12/08 13:29:16;;;;;;;5.93;2.80;;;;;;;;;;4958668;29;20497;-30
2022/12/08 13:32:01;;;;;;;8.57;3.22;;;;;;;;;;4899568;29;20119;-30
2022/12/08 13:34:38;;;;;;;11.63;3.58;;;;;;;;;;4954116;29;20035;-30
2022/12/08 13:37:10;;;;;;;9.63;4.05;;;;;;;;;;4958170;29;20043;-29
2022/12/08 13:39:39;;;;;;;7.35;2.97;;;;;;;;;;4958116;29;20027;-30
2022/12/08 13:42:13;;;;;;;6.50;3.00;;;;;;;;;;4958109;28;20027;-29
2022/12/08 13:44:54;;;;;;;9.55;3.00;;;;;;;;;;4957616;28;20354;-29
2022/12/08 13:47:20;;;;;;;;;;;;;;;;;;4958942;29;20074;-30
2022/12/08 13:49:53;;;;;;;13.93;3.17;;;;;;;;;;4958071;29;19906;-30
2022/12/08 13:52:39;;;;;;;11.77;2.67;;;;;;;;;;4957923;28;20031;-29
2022/12/08 13:55:06;;;;;;;10.32;5.05;;;;;;;;;;4947884;29;20043;-30
2022/12/08 13:57:36;;;;;;;13.60;4.15;;;;;;;;;;4957916;29;20035;-29
2022/12/08 14:00:07;;;;;;;6.82;3.25;;;;;;;;;;4958082;29;20458;-30
2022/12/08 14:02:38;;;;;;;19.55;3.28;;;;;;;;;;4957567;28;20055;-29
2022/12/08 14:05:04;;;;;;;11.07;2.97;;;;;;;;;;4957853;29;20118;-30
2022/12/08 14:07:32;;;;;;;6.50;3.08;;;;;;;;;;4957604;29;20362;-30
2022/12/08 14:09:59;;;;;;;9.75;3.53;;;;;;;;;;4957413;29;20414;-30
2022/12/08 14:12:27;;;;;;;13.00;3.35;;;;;;;;;;4956603;28;20035;-28
2022/12/08 14:14:56;;;;;;;6.78;2.90;;;;;;;;;;4957844;29;20361;-28
2022/12/08 14:17:23;;;;;;;16.30;3.65;;;;;;;;;;4957714;29;20027;-27
2022/12/08 14:20:03;;;;;;;7.97;3.00;;;;;;;;;;4956539;29;20490;-28
2022/12/08 14:22:34;;;;;;;14.98;3.40;;;;;;;;;;4957334;28;20455;-30
2022/12/08 14:25:00;;;;;;;6.95;2.63;;;;;;;;;;4957547;29;20023;-30
2022/12/08 14:27:28;;;;;;;8.80;2.92;;;;;;;;;;4957733;29;20027;-30
2022/12/08 14:29:56;;;;;;;6.85;2.75;;;;;;;;;;4957572;29;20403;-30
2022/12/08 14:32:27;;;;;;;18.52;3.20;;;;;;;;;;4957253;28;20366;-30
2022/12/08 14:34:53;;;;;;;;;;;;;;;;;;4957737;29;20035;-29
2022/12/08 14:37:20;;;;;;;13.88;4.05;;;;;;;;;;4957240;29;20238;-29
2022/12/08 14:39:46;;;;;;;12.90;3.25;;;;;;;;;;4957363;29;20043;-30
2022/12/08 14:42:23;;;;;;;4.95;3.05;;;;;;;;;;4957394;28;20031;-29
2022/12/08 14:44:56;;;;;;;12.70;2.97;;;;;;;;;;4957112;29;20090;-30
2022/12/08 14:47:22;;;;;;;15.65;3.35;;;;;;;;;;4956173;29;20031;-29
2022/12/08 14:49:48;;;;;;;13.35;3.38;;;;;;;;;;4956952;29;20062;-29
2022/12/08 14:52:14;;;;;;;11.40;3.05;;;;;;;;;;4957124;28;20098;-30
2022/12/08 14:54:42;;;;;;;12.23;2.92;;;;;;;;;;4956872;29;20023;-27
2022/12/08 14:57:13;;;;;;;9.60;3.10;;;;;;;;;;4956692;28;20094;-28
2022/12/08 14:59:39;;;;;;;12.38;3.15;;;;;;;;;;4955805;29;20074;-28
2022/12/08 15:02:20;;;;;;;8.20;2.50;;;;;;;;;;4956677;28;20031;-28